Time;durP1;ratioP1;P1;durP2;ratioP2;P2;SDS_P1;SDS_P2;PMS_P1;PMS_P2;Temp;Humidity;BMP_temperature;BMP_pressure;BME280_temperature;BME280_humidity;BME280_pressure;Samples;Min_cycle;Max_cycle;Signal;HPM_P1;HPM_P2
2023/06/07 00:01:12;;;;;;;8.43;2.30;;;;;;;;;;5106064;28;20062;-75
2023/06/07 00:03:44;;;;;;;2.97;2.33;;;;;;;;;;5088250;28;20054;-77
2023/06/07 00:06:14;;;;;;;6.28;2.20;;;;;;;;;;5105902;28;20054;-74
2023/06/07 00:08:45;;;;;;;5.60;2.20;;;;;;;;;;5105364;28;20047;-76
2023/06/07 00:11:18;;;;;;;4.65;2.40;;;;;;;;;;5105248;28;20047;-75
2023/06/07 00:13:51;;;;;;;6.47;2.22;;;;;;;;;;5106024;28;20046;-75
2023/06/07 00:16:23;;;;;;;6.30;2.90;;;;;;;;;;5088168;28;20058;-77
2023/06/07 00:18:54;;;;;;;6.15;2.42;;;;;;;;;;5102334;28;20503;-77
2023/06/07 00:21:27;;;;;;;7.25;2.75;;;;;;;;;;5105001;28;20063;-78
2023/06/07 00:23:58;;;;;;;5.65;2.38;;;;;;;;;;5086417;28;20040;-75
2023/06/07 00:26:28;;;;;;;6.35;2.38;;;;;;;;;;5105111;28;20421;-76
2023/06/07 00:28:58;;;;;;;5.57;2.28;;;;;;;;;;5086916;28;20413;-75
2023/06/07 00:31:29;;;;;;;4.65;2.25;;;;;;;;;;5087442;28;20422;-76
2023/06/07 00:34:00;;;;;;;4.53;2.50;;;;;;;;;;5105116;28;20070;-75
2023/06/07 00:36:34;;;;;;;3.67;2.47;;;;;;;;;;5086715;28;20059;-75
2023/06/07 00:39:04;;;;;;;5.88;2.78;;;;;;;;;;5105202;28;20497;-77
2023/06/07 00:41:35;;;;;;;4.93;2.28;;;;;;;;;;5104942;28;20047;-75
2023/06/07 00:44:07;;;;;;;3.58;2.30;;;;;;;;;;5105617;28;20044;-76
2023/06/07 00:46:40;;;;;;;12.02;2.70;;;;;;;;;;5104900;28;20039;-77
2023/06/07 00:49:11;;;;;;;4.10;2.40;;;;;;;;;;5104449;28;20044;-75
2023/06/07 00:51:43;;;;;;;5.22;2.50;;;;;;;;;;5086791;28;20059;-78
2023/06/07 00:54:17;;;;;;;7.65;3.10;;;;;;;;;;5104742;28;20046;-75
2023/06/07 00:56:50;;;;;;;5.72;2.90;;;;;;;;;;5104579;28;20529;-80
2023/06/07 00:59:22;;;;;;;8.38;2.63;;;;;;;;;;5086215;28;20051;-76
2023/06/07 01:01:55;;;;;;;5.20;2.80;;;;;;;;;;5086824;28;20051;-75
2023/06/07 01:04:26;;;;;;;5.65;2.60;;;;;;;;;;5103991;28;20043;-76
2023/06/07 01:07:01;;;;;;;3.20;2.63;;;;;;;;;;5085393;28;20044;-73
2023/06/07 01:09:31;;;;;;;5.53;2.95;;;;;;;;;;5104404;28;20502;-75
2023/06/07 01:12:08;;;;;;;4.53;2.63;;;;;;;;;;5082993;28;20047;-75
2023/06/07 01:14:41;;;;;;;4.78;2.38;;;;;;;;;;5102492;28;20048;-77
2023/06/07 01:17:12;;;;;;;8.85;3.20;;;;;;;;;;5084626;28;20414;-77
2023/06/07 01:19:43;;;;;;;5.35;2.67;;;;;;;;;;5103384;28;20043;-75
2023/06/07 01:22:24;;;;;;;7.18;2.92;;;;;;;;;;5103233;28;20061;-76
2023/06/07 01:24:56;;;;;;;4.75;2.80;;;;;;;;;;5084383;28;20490;-78
2023/06/07 01:27:30;;;;;;;4.53;2.67;;;;;;;;;;5104884;28;20050;-75
2023/06/07 01:30:01;;;;;;;4.68;2.38;;;;;;;;;;5108062;28;20051;-75
2023/06/07 01:32:33;;;;;;;4.07;2.50;;;;;;;;;;5089807;28;20048;-73
2023/06/07 01:35:06;;;;;;;8.75;2.53;;;;;;;;;;5108342;28;20402;-78
2023/06/07 01:37:37;;;;;;;7.25;2.53;;;;;;;;;;5089688;28;20066;-76
2023/06/07 01:40:08;;;;;;;8.40;2.85;;;;;;;;;;5108811;28;20051;-73
2023/06/07 01:42:40;;;;;;;4.45;2.50;;;;;;;;;;5090042;28;20048;-77
2023/06/07 01:45:14;;;;;;;4.45;2.40;;;;;;;;;;5108056;28;20044;-74
2023/06/07 01:47:44;;;;;;;5.15;2.70;;;;;;;;;;5108566;28;20055;-75
2023/06/07 01:50:21;;;;;;;10.32;2.60;;;;;;;;;;5108233;28;20078;-75
2023/06/07 01:52:52;;;;;;;5.60;2.72;;;;;;;;;;5108493;28;20063;-75
2023/06/07 01:55:24;;;;;;;6.68;2.67;;;;;;;;;;5107778;28;20051;-74
2023/06/07 01:58:00;;;;;;;7.82;2.58;;;;;;;;;;5089315;28;20052;-74
2023/06/07 02:00:52;;;;;;;8.23;2.88;;;;;;;;;;5107998;28;20051;-75
2023/06/07 02:03:43;;;;;;;3.78;2.63;;;;;;;;;;5089494;28;20060;-74
2023/06/07 02:06:20;;;;;;;5.07;2.80;;;;;;;;;;5107981;28;20052;-74
2023/06/07 02:08:54;;;;;;;6.70;2.88;;;;;;;;;;5089745;28;20047;-77
2023/06/07 02:11:25;;;;;;;7.13;3.10;;;;;;;;;;5089499;28;20544;-77
2023/06/07 02:13:59;;;;;;;8.07;3.33;;;;;;;;;;5088596;28;20052;-75
2023/06/07 02:16:35;;;;;;;4.90;2.92;;;;;;;;;;5089559;28;20056;-75
2023/06/07 02:19:09;;;;;;;6.65;2.90;;;;;;;;;;5088710;28;20059;-74
2023/06/07 02:21:52;;;;;;;5.82;2.92;;;;;;;;;;5088724;28;20055;-75
2023/06/07 02:24:25;;;;;;;7.97;3.40;;;;;;;;;;5107549;28;20051;-76
2023/06/07 02:26:56;;;;;;;6.78;3.40;;;;;;;;;;5088706;28;20043;-73
2023/06/07 02:29:29;;;;;;;5.97;3.08;;;;;;;;;;5107639;28;20043;-74
2023/06/07 02:32:00;;;;;;;5.82;3.22;;;;;;;;;;5107569;28;20051;-75
2023/06/07 02:34:36;;;;;;;4.80;2.80;;;;;;;;;;5107668;28;20044;-75
2023/06/07 02:37:06;;;;;;;7.85;3.58;;;;;;;;;;5088457;28;20047;-76
2023/06/07 02:39:37;;;;;;;5.60;3.13;;;;;;;;;;5106922;28;20052;-74
2023/06/07 02:42:07;;;;;;;7.20;3.10;;;;;;;;;;5106988;28;20044;-74
2023/06/07 02:44:37;;;;;;;10.32;2.92;;;;;;;;;;5089044;28;20062;-76
2023/06/07 02:47:09;;;;;;;6.65;3.10;;;;;;;;;;5088551;28;20433;-75
2023/06/07 02:49:41;;;;;;;6.57;3.40;;;;;;;;;;5107267;28;20047;-75
2023/06/07 02:52:11;;;;;;;7.57;3.50;;;;;;;;;;5072160;28;20054;-74
2023/06/07 02:54:42;;;;;;;8.27;3.58;;;;;;;;;;5107185;28;20367;-74
2023/06/07 02:57:12;;;;;;;5.88;3.55;;;;;;;;;;5106810;28;20063;-76
2023/06/07 02:59:43;;;;;;;7.97;3.13;;;;;;;;;;5106922;28;20497;-76
2023/06/07 03:02:19;;;;;;;4.63;2.58;;;;;;;;;;5087503;28;20055;-76
2023/06/07 03:04:56;;;;;;;6.13;2.92;;;;;;;;;;5088707;28;20063;-77
2023/06/07 03:07:28;;;;;;;;;;;;;;;;;;5088680;28;20426;-75
2023/06/07 03:09:59;;;;;;;5.75;2.75;;;;;;;;;;5087890;28;20298;-76
2023/06/07 03:12:31;;;;;;;8.07;2.80;;;;;;;;;;5107288;28;20039;-77
2023/06/07 03:15:01;;;;;;;5.68;2.83;;;;;;;;;;5087424;28;20059;-75
2023/06/07 03:17:32;;;;;;;8.10;3.40;;;;;;;;;;5088011;28;20059;-76
2023/06/07 03:20:06;;;;;;;7.10;3.10;;;;;;;;;;5088082;28;20051;-77
2023/06/07 03:22:38;;;;;;;5.20;3.25;;;;;;;;;;5088146;28;20062;-75
2023/06/07 03:25:12;;;;;;;7.55;2.72;;;;;;;;;;5088582;28;20054;-75
2023/06/07 03:27:46;;;;;;;7.40;2.95;;;;;;;;;;5088141;28;20414;-76
2023/06/07 03:30:32;;;;;;;4.70;2.90;;;;;;;;;;5088198;28;20058;-76
2023/06/07 03:33:03;;;;;;;10.02;3.05;;;;;;;;;;5092345;28;20051;-74
2023/06/07 03:35:36;;;;;;;6.03;3.08;;;;;;;;;;5089566;28;20055;-76
2023/06/07 03:38:10;;;;;;;5.43;2.92;;;;;;;;;;5089988;28;20052;-76
2023/06/07 03:40:43;;;;;;;4.90;3.15;;;;;;;;;;5089980;28;20055;-77
2023/06/07 03:43:16;;;;;;;6.82;3.30;;;;;;;;;;5088142;28;20051;-76
2023/06/07 03:45:46;;;;;;;;;;;;;;;;;;5087800;28;20055;-78
2023/06/07 03:48:17;;;;;;;9.98;3.22;;;;;;;;;;5087093;28;19946;-76
2023/06/07 03:50:50;;;;;;;7.35;3.58;;;;;;;;;;5087645;28;20059;-74
2023/06/07 03:53:21;;;;;;;4.32;3.15;;;;;;;;;;5086466;28;20051;-75
2023/06/07 03:55:52;;;;;;;7.15;3.20;;;;;;;;;;5087834;28;20429;-74
2023/06/07 03:58:26;;;;;;;10.20;3.38;;;;;;;;;;5087518;28;20608;-75
2023/06/07 04:00:58;;;;;;;4.05;2.88;;;;;;;;;;5086979;28;20051;-76
2023/06/07 04:03:30;;;;;;;4.80;2.75;;;;;;;;;;5087297;28;20394;-76
2023/06/07 04:06:03;;;;;;;6.30;3.20;;;;;;;;;;5086691;28;20445;-75
2023/06/07 04:08:38;;;;;;;7.35;3.13;;;;;;;;;;5087205;28;20054;-77
2023/06/07 04:11:10;;;;;;;11.50;2.60;;;;;;;;;;5086733;28;20062;-76
2023/06/07 04:13:42;;;;;;;4.60;2.90;;;;;;;;;;5087239;28;20047;-77
2023/06/07 04:16:13;;;;;;;7.38;3.63;;;;;;;;;;5086552;28;20048;-76
2023/06/07 04:18:47;;;;;;;4.88;3.25;;;;;;;;;;5086806;28;20052;-77
2023/06/07 04:21:19;;;;;;;5.40;3.50;;;;;;;;;;5086664;28;20848;-75
2023/06/07 04:23:51;;;;;;;5.85;3.00;;;;;;;;;;5087332;28;20059;-74
2023/06/07 04:26:24;;;;;;;12.50;3.65;;;;;;;;;;5087265;28;20060;-76
2023/06/07 04:28:56;;;;;;;5.05;3.13;;;;;;;;;;5104407;28;20055;-75
2023/06/07 04:31:34;;;;;;;7.15;3.10;;;;;;;;;;5087098;28;20060;-77
2023/06/07 04:34:09;;;;;;;7.75;3.97;;;;;;;;;;5105010;28;20047;-75
2023/06/07 04:36:40;;;;;;;5.55;3.08;;;;;;;;;;5086401;28;20051;-76
2023/06/07 04:39:20;;;;;;;6.57;3.42;;;;;;;;;;5086824;28;20043;-75
2023/06/07 04:41:53;;;;;;;6.30;3.88;;;;;;;;;;5086854;28;20071;-75
2023/06/07 04:44:28;;;;;;;8.43;4.05;;;;;;;;;;5086433;28;20337;-77
2023/06/07 04:47:08;;;;;;;6.88;3.97;;;;;;;;;;5086964;28;20929;-77
2023/06/07 04:49:44;;;;;;;11.93;3.58;;;;;;;;;;5086449;28;20063;-75
2023/06/07 04:52:19;;;;;;;6.57;4.22;;;;;;;;;;5069943;28;20344;-75
2023/06/07 04:54:59;;;;;;;6.03;3.47;;;;;;;;;;5085901;28;20421;-76
2023/06/07 04:57:32;;;;;;;5.35;3.60;;;;;;;;;;5086816;28;20054;-76
2023/06/07 05:00:06;;;;;;;8.35;4.28;;;;;;;;;;5086983;28;20048;-74
2023/06/07 05:02:44;;;;;;;7.70;3.35;;;;;;;;;;5086425;28;20051;-76
2023/06/07 05:05:17;;;;;;;5.55;3.70;;;;;;;;;;5089899;28;20522;-77
2023/06/07 05:07:49;;;;;;;5.25;3.03;;;;;;;;;;5090436;28;20059;-78
2023/06/07 05:10:22;;;;;;;6.88;3.20;;;;;;;;;;5089314;28;20062;-76
2023/06/07 05:12:53;;;;;;;6.30;3.53;;;;;;;;;;5090453;28;20067;-75
2023/06/07 05:15:23;;;;;;;6.38;3.70;;;;;;;;;;5108900;28;20043;-76
2023/06/07 05:17:54;;;;;;;4.80;3.25;;;;;;;;;;5089993;28;20051;-75
2023/06/07 05:20:26;;;;;;;5.22;3.22;;;;;;;;;;5090421;28;20051;-76
2023/06/07 05:22:59;;;;;;;5.90;3.33;;;;;;;;;;5090000;28;20532;-75
2023/06/07 05:25:31;;;;;;;5.57;3.30;;;;;;;;;;5090371;28;20051;-75
2023/06/07 05:28:03;;;;;;;3.83;2.95;;;;;;;;;;5090107;28;20059;-76
2023/06/07 05:30:48;;;;;;;5.90;3.22;;;;;;;;;;5089938;28;20078;-75
2023/06/07 05:33:20;;;;;;;10.73;3.30;;;;;;;;;;5089728;28;20051;-76
2023/06/07 05:35:52;;;;;;;4.72;3.13;;;;;;;;;;5090096;28;20060;-76
2023/06/07 05:38:22;;;;;;;8.00;3.47;;;;;;;;;;5089809;28;20059;-76
2023/06/07 05:40:55;;;;;;;3.78;3.03;;;;;;;;;;5108781;28;20504;-75
2023/06/07 05:43:29;;;;;;;5.78;3.30;;;;;;;;;;5089433;28;20058;-75
2023/06/07 05:46:00;;;;;;;7.78;3.22;;;;;;;;;;5089664;28;20054;-76
2023/06/07 05:48:31;;;;;;;8.93;3.50;;;;;;;;;;5090232;28;20043;-76
2023/06/07 05:51:02;;;;;;;7.00;3.83;;;;;;;;;;5089662;28;20056;-76
2023/06/07 05:53:37;;;;;;;6.43;3.28;;;;;;;;;;5108275;28;20109;-76
2023/06/07 05:56:10;;;;;;;5.85;2.95;;;;;;;;;;5090326;28;20055;-75
2023/06/07 05:58:42;;;;;;;5.65;2.95;;;;;;;;;;5107823;28;20050;-75
2023/06/07 06:01:13;;;;;;;4.60;2.95;;;;;;;;;;5108455;28;20059;-76
2023/06/07 06:03:43;;;;;;;5.10;3.67;;;;;;;;;;5107859;28;20043;-77
2023/06/07 06:06:19;;;;;;;6.07;3.50;;;;;;;;;;5108011;28;20043;-76
2023/06/07 06:08:49;;;;;;;5.03;3.78;;;;;;;;;;5108077;28;20048;-76
2023/06/07 06:11:21;;;;;;;5.85;3.50;;;;;;;;;;5107810;28;20048;-77
2023/06/07 06:13:51;;;;;;;6.75;3.30;;;;;;;;;;5108301;28;20043;-77
2023/06/07 06:16:22;;;;;;;5.53;3.30;;;;;;;;;;5106694;28;20055;-77
2023/06/07 06:18:52;;;;;;;7.05;3.47;;;;;;;;;;5108092;28;20051;-76
2023/06/07 06:21:22;;;;;;;6.30;3.67;;;;;;;;;;5106625;28;20422;-75
2023/06/07 06:23:53;;;;;;;5.78;3.88;;;;;;;;;;5107931;28;20502;-76
2023/06/07 06:26:27;;;;;;;7.75;3.50;;;;;;;;;;5107745;28;20069;-76
2023/06/07 06:28:58;;;;;;;9.05;3.35;;;;;;;;;;5107386;28;20050;-75
2023/06/07 06:31:28;;;;;;;6.40;4.07;;;;;;;;;;5108117;28;20047;-76
2023/06/07 06:33:59;;;;;;;6.45;3.33;;;;;;;;;;5107125;28;20383;-75
2023/06/07 06:36:30;;;;;;;5.50;3.30;;;;;;;;;;5108007;28;20054;-75
2023/06/07 06:39:02;;;;;;;6.03;3.00;;;;;;;;;;5107135;28;20410;-75
2023/06/07 06:41:33;;;;;;;3.25;2.45;;;;;;;;;;5107374;28;20383;-75
2023/06/07 06:44:05;;;;;;;5.45;3.25;;;;;;;;;;5088697;28;20058;-75
2023/06/07 06:46:37;;;;;;;8.25;3.47;;;;;;;;;;5107064;28;20054;-76
2023/06/07 06:49:07;;;;;;;4.50;3.10;;;;;;;;;;5107121;28;20490;-75
2023/06/07 06:51:41;;;;;;;7.40;3.22;;;;;;;;;;5106077;28;20074;-75
2023/06/07 06:54:15;;;;;;;10.90;3.45;;;;;;;;;;5107557;28;20038;-75
2023/06/07 06:56:48;;;;;;;8.40;3.45;;;;;;;;;;5107356;28;20421;-76
2023/06/07 06:59:18;;;;;;;8.40;3.60;;;;;;;;;;5106570;28;20047;-75
2023/06/07 07:01:49;;;;;;;4.68;3.20;;;;;;;;;;5106369;28;20048;-76
2023/06/07 07:04:22;;;;;;;8.13;3.42;;;;;;;;;;5106949;28;20054;-76
2023/06/07 07:06:53;;;;;;;5.43;3.90;;;;;;;;;;5107033;28;20401;-75
2023/06/07 07:09:22;;;;;;;8.30;3.63;;;;;;;;;;5106196;28;20047;-75
2023/06/07 07:11:53;;;;;;;5.85;3.33;;;;;;;;;;5106419;28;20422;-75
2023/06/07 07:14:23;;;;;;;;;;;;;;;;;;5107035;28;20051;-76
2023/06/07 07:16:54;;;;;;;5.60;3.35;;;;;;;;;;5106750;28;19924;-75
2023/06/07 07:19:25;;;;;;;8.73;4.00;;;;;;;;;;5106340;28;20773;-76
2023/06/07 07:21:56;;;;;;;5.82;3.58;;;;;;;;;;5106539;28;20043;-75
2023/06/07 07:24:28;;;;;;;7.20;3.40;;;;;;;;;;5106689;28;20405;-76
2023/06/07 07:26:57;;;;;;;;;;;;;;;;;;5107026;28;20051;-76
2023/06/07 07:29:29;;;;;;;6.10;3.67;;;;;;;;;;5106376;28;19924;-76
2023/06/07 07:32:00;;;;;;;5.78;3.58;;;;;;;;;;5106518;28;20048;-76
2023/06/07 07:34:30;;;;;;;5.78;4.00;;;;;;;;;;5106179;28;20062;-75
2023/06/07 07:37:02;;;;;;;7.10;4.00;;;;;;;;;;5106563;28;20043;-75
2023/06/07 07:39:33;;;;;;;6.10;3.83;;;;;;;;;;5105774;28;20524;-76
2023/06/07 07:42:06;;;;;;;8.38;3.95;;;;;;;;;;5106010;28;20051;-76
2023/06/07 07:44:37;;;;;;;7.18;3.50;;;;;;;;;;5106161;28;20478;-75
2023/06/07 07:47:08;;;;;;;8.10;3.75;;;;;;;;;;5106367;28;20047;-75
2023/06/07 07:49:39;;;;;;;5.85;3.88;;;;;;;;;;5106354;28;20062;-76
2023/06/07 07:52:10;;;;;;;8.82;3.38;;;;;;;;;;5105805;28;20047;-75
2023/06/07 07:54:41;;;;;;;11.00;4.38;;;;;;;;;;5087855;28;20506;-75
2023/06/07 07:57:11;;;;;;;7.70;4.40;;;;;;;;;;5105769;28;20353;-75
2023/06/07 07:59:43;;;;;;;6.65;4.20;;;;;;;;;;5087093;28;20047;-76
2023/06/07 08:02:15;;;;;;;7.10;3.97;;;;;;;;;;5105710;28;20044;-75
2023/06/07 08:04:45;;;;;;;8.77;4.35;;;;;;;;;;5106009;28;20051;-76
2023/06/07 08:07:15;;;;;;;6.60;4.05;;;;;;;;;;5105639;28;20040;-75
2023/06/07 08:09:46;;;;;;;6.85;3.85;;;;;;;;;;5106025;28;20047;-75
2023/06/07 08:12:17;;;;;;;5.97;3.95;;;;;;;;;;5105567;28;20047;-75
2023/06/07 08:14:47;;;;;;;6.45;3.88;;;;;;;;;;5105624;28;20565;-76
2023/06/07 08:17:19;;;;;;;6.30;3.85;;;;;;;;;;5105900;28;20059;-76
2023/06/07 08:19:51;;;;;;;7.90;4.10;;;;;;;;;;5105783;28;20043;-75
2023/06/07 08:22:22;;;;;;;6.40;3.70;;;;;;;;;;5105790;28;20402;-76
2023/06/07 08:24:52;;;;;;;7.68;3.83;;;;;;;;;;5105292;28;20435;-75
2023/06/07 08:27:23;;;;;;;7.68;4.47;;;;;;;;;;5105099;28;20391;-75
2023/06/07 08:29:53;;;;;;;6.95;3.72;;;;;;;;;;5087644;28;20048;-75
2023/06/07 08:32:24;;;;;;;8.85;4.47;;;;;;;;;;5105405;28;20052;-74
2023/06/07 08:34:55;;;;;;;5.95;3.90;;;;;;;;;;5105660;28;20051;-75
2023/06/07 08:37:25;;;;;;;7.57;4.10;;;;;;;;;;5104627;28;20047;-75
2023/06/07 08:39:55;;;;;;;9.70;4.10;;;;;;;;;;5090758;28;20055;-74
2023/06/07 08:42:25;;;;;;;7.45;3.72;;;;;;;;;;5109295;28;20051;-75
2023/06/07 08:44:56;;;;;;;5.38;3.67;;;;;;;;;;5109593;28;20051;-75
2023/06/07 08:47:28;;;;;;;8.10;4.60;;;;;;;;;;5109635;28;20055;-75
2023/06/07 08:50:01;;;;;;;7.60;4.10;;;;;;;;;;5109548;28;20422;-76
2023/06/07 08:52:39;;;;;;;6.75;3.95;;;;;;;;;;5109616;28;20050;-75
2023/06/07 08:55:13;;;;;;;7.43;3.83;;;;;;;;;;5109372;28;20043;-76
2023/06/07 08:57:51;;;;;;;6.70;4.07;;;;;;;;;;5109333;28;20036;-76
2023/06/07 09:00:25;;;;;;;7.28;4.05;;;;;;;;;;5109018;28;20051;-75
2023/06/07 09:02:57;;;;;;;8.98;4.28;;;;;;;;;;5109162;28;20058;-75
2023/06/07 09:05:29;;;;;;;6.50;4.32;;;;;;;;;;5109194;28;20039;-75
2023/06/07 09:08:01;;;;;;;9.88;4.20;;;;;;;;;;5109091;28;20055;-75
2023/06/07 09:10:32;;;;;;;7.70;4.32;;;;;;;;;;5109522;28;20059;-76
2023/06/07 09:13:04;;;;;;;6.50;3.92;;;;;;;;;;5108875;28;20051;-75
2023/06/07 09:15:36;;;;;;;9.20;4.43;;;;;;;;;;5109131;28;20043;-75
2023/06/07 09:18:08;;;;;;;8.77;4.50;;;;;;;;;;5108506;28;20056;-76
2023/06/07 09:20:39;;;;;;;6.60;4.13;;;;;;;;;;5109201;28;20054;-75
2023/06/07 09:23:16;;;;;;;10.13;4.68;;;;;;;;;;5109038;28;20058;-75
2023/06/07 09:25:53;;;;;;;7.55;4.55;;;;;;;;;;5108842;28;20048;-76
2023/06/07 09:28:24;;;;;;;9.02;4.65;;;;;;;;;;5108888;28;20043;-74
2023/06/07 09:31:00;;;;;;;8.27;4.85;;;;;;;;;;5108809;28;20043;-76
2023/06/07 09:33:35;;;;;;;8.85;3.97;;;;;;;;;;5108406;28;20054;-75
2023/06/07 09:36:12;;;;;;;7.18;4.38;;;;;;;;;;5108511;28;20044;-75
2023/06/07 09:38:43;;;;;;;7.80;4.13;;;;;;;;;;5108689;28;20048;-74
2023/06/07 09:41:14;;;;;;;8.88;4.85;;;;;;;;;;5109265;28;20059;-76
2023/06/07 09:43:51;;;;;;;10.15;4.78;;;;;;;;;;5108705;28;20052;-75
2023/06/07 09:46:22;;;;;;;8.73;4.82;;;;;;;;;;5108509;28;20044;-76
2023/06/07 09:48:55;;;;;;;8.35;5.07;;;;;;;;;;5107163;28;20417;-77
2023/06/07 09:51:27;;;;;;;17.15;6.03;;;;;;;;;;5108452;28;20051;-75
2023/06/07 09:54:05;;;;;;;7.90;4.65;;;;;;;;;;5089929;28;20074;-78
2023/06/07 09:56:40;;;;;;;8.88;4.60;;;;;;;;;;5108711;28;20048;-75
2023/06/07 09:59:13;;;;;;;7.18;3.88;;;;;;;;;;5089875;28;20425;-75
2023/06/07 10:01:47;;;;;;;5.07;3.53;;;;;;;;;;5108511;28;20051;-75
2023/06/07 10:04:18;;;;;;;5.93;4.10;;;;;;;;;;5108427;28;20047;-76
2023/06/07 10:06:54;;;;;;;8.82;4.20;;;;;;;;;;5107079;28;20833;-76
2023/06/07 10:09:26;;;;;;;4.95;3.40;;;;;;;;;;5107787;28;20047;-75
2023/06/07 10:11:57;;;;;;;6.05;3.95;;;;;;;;;;5089173;28;20581;-75
2023/06/07 10:14:32;;;;;;;7.30;3.95;;;;;;;;;;5107468;28;20045;-77
2023/06/07 10:17:10;;;;;;;9.13;4.50;;;;;;;;;;5108195;28;20794;-77
2023/06/07 10:19:43;;;;;;;8.23;4.20;;;;;;;;;;5107697;28;20043;-76
2023/06/07 10:22:15;;;;;;;9.13;4.55;;;;;;;;;;5108050;28;20054;-74
2023/06/07 10:25:12;;;;;;;11.73;4.90;;;;;;;;;;5107709;28;20039;-77
2023/06/07 10:27:43;;;;;;;9.25;5.07;;;;;;;;;;5107962;28;20506;-77
2023/06/07 10:30:16;;;;;;;8.63;5.53;;;;;;;;;;5089703;28;20600;-76
2023/06/07 10:32:47;;;;;;;11.10;4.95;;;;;;;;;;5107660;28;20048;-75
2023/06/07 10:35:20;;;;;;;11.48;4.97;;;;;;;;;;5107163;28;20414;-74
2023/06/07 10:37:53;;;;;;;14.77;5.55;;;;;;;;;;5107201;28;20052;-78
2023/06/07 10:40:25;;;;;;;13.45;5.05;;;;;;;;;;5107941;28;20051;-76
2023/06/07 10:42:58;;;;;;;10.55;5.00;;;;;;;;;;5107590;28;20054;-76
2023/06/07 10:45:29;;;;;;;10.15;5.53;;;;;;;;;;5107214;28;20047;-74
2023/06/07 10:48:45;;;;;;;11.15;5.22;;;;;;;;;;5087990;28;20056;-81
2023/06/07 10:51:16;;;;;;;16.52;4.97;;;;;;;;;;5107392;28;20047;-77
2023/06/07 10:53:55;;;;;;;11.65;5.18;;;;;;;;;;5107222;28;20048;-74
2023/06/07 10:56:36;;;;;;;11.38;4.90;;;;;;;;;;5105013;28;20047;-75
2023/06/07 10:59:14;;;;;;;11.15;5.45;;;;;;;;;;5106843;28;20063;-74
2023/06/07 11:01:54;;;;;;;11.20;4.68;;;;;;;;;;5105890;28;20047;-76
2023/06/07 11:04:39;;;;;;;7.78;5.03;;;;;;;;;;5106368;28;20040;-76
2023/06/07 11:07:32;;;;;;;9.85;4.47;;;;;;;;;;5106435;28;20043;-75
2023/06/07 11:10:03;;;;;;;7.18;4.70;;;;;;;;;;5106482;28;20054;-75
2023/06/07 11:12:43;;;;;;;6.22;4.45;;;;;;;;;;5106027;28;20047;-75
2023/06/07 11:15:36;;;;;;;8.98;4.78;;;;;;;;;;5105853;28;20047;-74
2023/06/07 11:18:08;;;;;;;7.05;4.35;;;;;;;;;;5106332;28;20047;-75
2023/06/07 11:20:48;;;;;;;10.73;4.60;;;;;;;;;;5107121;28;20050;-75
2023/06/07 11:23:37;;;;;;;7.05;4.60;;;;;;;;;;5107022;28;20051;-75
2023/06/07 11:26:11;;;;;;;8.77;5.25;;;;;;;;;;5107083;28;20415;-76
2023/06/07 11:28:43;;;;;;;9.57;5.78;;;;;;;;;;5106167;28;20397;-75
2023/06/07 11:31:14;;;;;;;11.77;6.22;;;;;;;;;;5106410;28;20047;-74
2023/06/07 11:33:51;;;;;;;14.90;6.55;;;;;;;;;;5106203;28;20048;-75
2023/06/07 11:36:21;;;;;;;12.88;6.03;;;;;;;;;;5106371;28;20502;-76
2023/06/07 11:38:54;;;;;;;9.48;6.03;;;;;;;;;;5088036;28;20058;-77
2023/06/07 11:41:26;;;;;;;12.05;6.00;;;;;;;;;;5107229;28;20055;-75
2023/06/07 11:43:57;;;;;;;10.10;5.55;;;;;;;;;;5106035;28;20047;-76
2023/06/07 11:46:31;;;;;;;7.05;4.50;;;;;;;;;;5106121;28;20046;-77
2023/06/07 11:49:09;;;;;;;5.32;4.03;;;;;;;;;;5106018;28;20050;-77
2023/06/07 11:51:40;;;;;;;5.07;3.30;;;;;;;;;;5106083;28;20051;-76
2023/06/07 11:54:13;;;;;;;6.07;3.45;;;;;;;;;;5106323;28;20043;-76
2023/06/07 11:56:44;;;;;;;8.55;3.63;;;;;;;;;;5106092;28;20059;-76
2023/06/07 11:59:23;;;;;;;6.13;3.50;;;;;;;;;;5092662;28;20051;-74
2023/06/07 12:01:55;;;;;;;4.65;3.35;;;;;;;;;;5094829;28;20047;-76
2023/06/07 12:04:26;;;;;;;5.03;3.22;;;;;;;;;;5113917;28;21083;-76
2023/06/07 12:06:57;;;;;;;7.95;3.53;;;;;;;;;;5112325;28;20048;-77
2023/06/07 12:09:27;;;;;;;7.57;3.22;;;;;;;;;;5106114;28;20414;-77
2023/06/07 12:12:00;;;;;;;5.10;3.20;;;;;;;;;;5105312;28;20066;-77
2023/06/07 12:14:34;;;;;;;4.50;3.05;;;;;;;;;;5104828;28;20044;-76
2023/06/07 12:17:05;;;;;;;5.00;3.13;;;;;;;;;;5105397;28;20050;-76
2023/06/07 12:19:37;;;;;;;6.32;3.72;;;;;;;;;;5105052;28;20040;-77
2023/06/07 12:22:10;;;;;;;4.85;3.13;;;;;;;;;;5105251;28;20070;-77
2023/06/07 12:24:42;;;;;;;5.65;3.30;;;;;;;;;;5105020;28;20043;-76
2023/06/07 12:27:16;;;;;;;6.22;3.55;;;;;;;;;;5105365;28;20051;-76
2023/06/07 12:29:53;;;;;;;5.45;3.20;;;;;;;;;;5105179;28;20043;-75
2023/06/07 12:32:25;;;;;;;4.68;3.08;;;;;;;;;;5105916;28;20552;-76
2023/06/07 12:35:01;;;;;;;10.18;3.53;;;;;;;;;;5105503;28;20047;-75
2023/06/07 12:37:36;;;;;;;6.03;3.28;;;;;;;;;;5105092;28;20048;-77
2023/06/07 12:40:08;;;;;;;6.57;3.22;;;;;;;;;;5105458;28;20406;-76
2023/06/07 12:42:40;;;;;;;5.47;3.25;;;;;;;;;;5087803;28;20486;-75
2023/06/07 12:45:11;;;;;;;9.13;3.67;;;;;;;;;;5105783;28;20043;-75
2023/06/07 12:47:43;;;;;;;13.05;3.67;;;;;;;;;;5085938;28;20070;-77
2023/06/07 12:50:17;;;;;;;11.68;3.95;;;;;;;;;;5105591;28;20055;-76
2023/06/07 12:52:48;;;;;;;10.15;3.85;;;;;;;;;;5103602;28;20545;-75
2023/06/07 12:55:20;;;;;;;6.43;3.55;;;;;;;;;;5104864;28;20051;-77
2023/06/07 12:57:51;;;;;;;10.18;4.20;;;;;;;;;;5085551;28;20059;-75
2023/06/07 13:00:22;;;;;;;8.07;3.70;;;;;;;;;;5104820;28;20525;-77
2023/06/07 13:02:53;;;;;;;5.30;3.55;;;;;;;;;;5105276;28;20044;-76
2023/06/07 13:05:24;;;;;;;8.57;4.45;;;;;;;;;;5087242;28;20043;-77
2023/06/07 13:07:55;;;;;;;8.30;3.80;;;;;;;;;;5105819;28;21173;-76
2023/06/07 13:10:25;;;;;;;7.40;3.95;;;;;;;;;;5104851;28;20043;-76
2023/06/07 13:12:56;;;;;;;9.07;3.60;;;;;;;;;;5105033;28;20052;-76
2023/06/07 13:15:28;;;;;;;8.07;4.55;;;;;;;;;;5104997;28;20055;-75
2023/06/07 13:17:58;;;;;;;11.65;4.75;;;;;;;;;;5087079;28;20056;-75
2023/06/07 13:20:29;;;;;;;7.55;4.55;;;;;;;;;;5104569;28;20039;-76
2023/06/07 13:23:00;;;;;;;11.85;8.55;;;;;;;;;;5104816;28;20448;-75
2023/06/07 13:25:31;;;;;;;8.90;5.07;;;;;;;;;;5106979;28;20429;-77
2023/06/07 13:28:02;;;;;;;7.35;4.65;;;;;;;;;;5109012;28;20047;-76
2023/06/07 13:30:34;;;;;;;7.47;4.85;;;;;;;;;;5108675;28;20046;-74
2023/06/07 13:33:16;;;;;;;8.38;4.88;;;;;;;;;;5108960;28;20047;-78
2023/06/07 13:35:47;;;;;;;6.88;4.57;;;;;;;;;;5108366;28;20052;-74
2023/06/07 13:38:16;;;;;;;9.60;4.97;;;;;;;;;;5108296;28;20044;-76
2023/06/07 13:40:47;;;;;;;9.65;6.75;;;;;;;;;;5090242;28;20043;-75
2023/06/07 13:43:17;;;;;;;10.48;5.88;;;;;;;;;;5108555;28;20043;-75
2023/06/07 13:45:56;;;;;;;7.25;4.68;;;;;;;;;;5108609;28;20119;-75
2023/06/07 13:48:29;;;;;;;20.98;5.72;;;;;;;;;;5108284;28;20405;-77
2023/06/07 13:51:00;;;;;;;11.50;6.18;;;;;;;;;;5108426;28;20062;-76
2023/06/07 13:53:30;;;;;;;11.75;5.38;;;;;;;;;;5108553;28;20520;-80
2023/06/07 13:56:03;;;;;;;9.02;5.32;;;;;;;;;;5108442;28;20051;-76
2023/06/07 13:58:36;;;;;;;11.00;5.15;;;;;;;;;;5107973;28;20051;-75
2023/06/07 14:01:09;;;;;;;9.63;5.40;;;;;;;;;;5108163;28;20047;-75
2023/06/07 14:03:40;;;;;;;9.85;4.90;;;;;;;;;;5108215;28;20051;-78
2023/06/07 14:06:12;;;;;;;6.65;4.78;;;;;;;;;;5107943;28;20055;-75
2023/06/07 14:08:44;;;;;;;8.18;4.32;;;;;;;;;;5108200;28;20040;-76
2023/06/07 14:11:15;;;;;;;10.82;5.28;;;;;;;;;;5108484;28;20040;-78
2023/06/07 14:13:46;;;;;;;10.63;4.88;;;;;;;;;;5108096;28;20161;-76
2023/06/07 14:16:19;;;;;;;13.15;4.70;;;;;;;;;;5090247;28;20043;-76
2023/06/07 14:18:52;;;;;;;8.00;4.57;;;;;;;;;;5090210;28;20070;-77
2023/06/07 14:21:22;;;;;;;15.15;5.88;;;;;;;;;;5107902;28;20552;-76
2023/06/07 14:23:53;;;;;;;12.27;4.50;;;;;;;;;;5107432;28;20050;-78
2023/06/07 14:26:23;;;;;;;6.47;4.32;;;;;;;;;;5089296;28;20075;-78
2023/06/07 14:28:55;;;;;;;6.63;4.65;;;;;;;;;;5107604;28;20043;-79
2023/06/07 14:31:27;;;;;;;7.13;3.92;;;;;;;;;;5107879;28;20051;-78
2023/06/07 14:33:59;;;;;;;6.00;3.88;;;;;;;;;;5088796;28;20518;-77
2023/06/07 14:36:30;;;;;;;16.42;5.15;;;;;;;;;;5106431;28;20043;-76
2023/06/07 14:39:02;;;;;;;8.00;3.88;;;;;;;;;;5107192;28;20043;-75
2023/06/07 14:41:33;;;;;;;6.25;3.30;;;;;;;;;;5107111;28;20522;-78
2023/06/07 14:44:06;;;;;;;4.45;3.42;;;;;;;;;;5107373;28;20047;-75
2023/06/07 14:46:38;;;;;;;6.45;3.67;;;;;;;;;;5107201;28;20039;-77
2023/06/07 14:49:09;;;;;;;5.03;3.17;;;;;;;;;;5107174;28;20075;-75
2023/06/07 14:51:39;;;;;;;7.55;3.33;;;;;;;;;;5107214;28;20052;-76
2023/06/07 14:54:10;;;;;;;5.55;3.03;;;;;;;;;;5108046;28;20043;-76
2023/06/07 14:56:42;;;;;;;4.57;2.80;;;;;;;;;;5107093;28;20070;-77
2023/06/07 14:59:13;;;;;;;5.78;2.70;;;;;;;;;;5106781;28;20081;-77
2023/06/07 15:01:43;;;;;;;9.10;3.60;;;;;;;;;;5106996;28;20058;-76
2023/06/07 15:04:14;;;;;;;4.95;2.75;;;;;;;;;;5106687;28;20059;-77
2023/06/07 15:06:45;;;;;;;6.97;3.38;;;;;;;;;;5106878;28;20047;-77
2023/06/07 15:09:21;;;;;;;5.60;2.92;;;;;;;;;;5105936;28;20051;-78
2023/06/07 15:11:51;;;;;;;6.28;3.33;;;;;;;;;;5107554;28;20042;-76
2023/06/07 15:14:21;;;;;;;7.57;3.22;;;;;;;;;;5106487;28;20043;-76
2023/06/07 15:16:53;;;;;;;5.07;3.35;;;;;;;;;;5104952;28;20047;-76